createdAt,value
2019-03-29T00:00:32.756Z,9.70
2019-03-29T00:03:01.169Z,9.60
2019-03-29T00:05:29.562Z,9.40
2019-03-29T00:07:57.979Z,9.20
2019-03-29T00:10:26.378Z,9.20
2019-03-29T00:12:54.802Z,9.10
2019-03-29T00:15:23.200Z,9.20
2019-03-29T00:17:51.599Z,9.30
2019-03-29T00:20:20.208Z,9.40
2019-03-29T00:22:48.989Z,9.40
2019-03-29T00:25:22.299Z,9.50
2019-03-29T00:27:50.726Z,9.60
2019-03-29T00:30:19.242Z,9.50
2019-03-29T00:32:47.636Z,9.50
2019-03-29T00:35:16.058Z,9.50
2019-03-29T00:37:53.277Z,9.30
2019-03-29T00:40:14.582Z,9.20
2019-03-29T00:42:43.098Z,9.30
2019-03-29T00:45:11.890Z,9.30
2019-03-29T00:47:40.298Z,9.40
2019-03-29T00:50:08.904Z,9.30
2019-03-29T00:52:37.296Z,9.30
2019-03-29T00:55:06.667Z,9.30
2019-03-29T00:57:35.059Z,9.30
2019-03-29T01:00:06.283Z,9.20
2019-03-29T01:02:35.384Z,9.10
2019-03-29T01:05:06.034Z,9.10
2019-03-29T01:07:34.411Z,9.10
2019-03-29T01:10:03.088Z,9.10
2019-03-29T01:12:32.845Z,9.00
2019-03-29T01:15:01.418Z,9.00
2019-03-29T01:17:29.815Z,8.80
2019-03-29T01:19:58.240Z,8.80
2019-03-29T01:22:26.635Z,8.80
2019-03-29T01:24:55.034Z,8.80
2019-03-29T01:27:23.459Z,8.80
2019-03-29T01:29:51.862Z,8.90
2019-03-29T01:32:20.267Z,8.90
2019-03-29T01:34:48.670Z,8.80
2019-03-29T01:37:17.098Z,8.70
2019-03-29T01:39:45.494Z,8.80
2019-03-29T01:42:14.084Z,8.80
2019-03-29T01:44:42.488Z,8.80
2019-03-29T01:47:10.924Z,8.80
2019-03-29T01:49:39.311Z,8.90
2019-03-29T01:52:07.732Z,8.80
2019-03-29T01:54:36.152Z,8.80
2019-03-29T01:57:04.553Z,8.70
2019-03-29T01:59:32.950Z,8.70
2019-03-29T02:02:01.381Z,8.70
2019-03-29T02:04:29.777Z,8.70
2019-03-29T02:06:58.211Z,8.60
2019-03-29T02:09:26.707Z,8.50
2019-03-29T02:11:55.126Z,8.50
2019-03-29T02:14:23.519Z,8.40
2019-03-29T02:16:51.954Z,8.40
2019-03-29T02:19:20.411Z,8.60
2019-03-29T02:21:48.866Z,8.60
2019-03-29T02:24:17.271Z,8.60
2019-03-29T02:26:45.700Z,8.50
2019-03-29T02:29:14.104Z,8.50
2019-03-29T02:31:42.854Z,8.50
2019-03-29T02:34:11.432Z,8.50
2019-03-29T02:36:39.876Z,8.50
2019-03-29T02:39:08.341Z,8.50
2019-03-29T02:41:36.771Z,8.40
2019-03-29T02:44:05.200Z,8.40
2019-03-29T02:46:33.611Z,8.30
2019-03-29T02:49:02.045Z,8.30
2019-03-29T02:51:31.619Z,8.20
2019-03-29T02:54:00.608Z,8.10
2019-03-29T02:56:29.000Z,8.20
2019-03-29T02:58:57.424Z,8.10
2019-03-29T03:01:25.833Z,8.10
2019-03-29T03:03:54.245Z,8.10
2019-03-29T03:06:22.725Z,8.10
2019-03-29T03:08:51.179Z,8.00
2019-03-29T03:11:19.816Z,8.00
2019-03-29T03:13:48.257Z,8.00
2019-03-29T03:16:16.666Z,7.90
2019-03-29T03:18:45.070Z,7.90
2019-03-29T03:21:13.496Z,7.90
2019-03-29T03:23:41.912Z,7.80
2019-03-29T03:26:10.329Z,7.80
2019-03-29T03:28:38.750Z,7.70
2019-03-29T03:31:07.169Z,7.60
2019-03-29T03:33:35.609Z,7.70
2019-03-29T03:36:04.083Z,7.80
2019-03-29T03:38:32.508Z,7.70
2019-03-29T03:41:00.923Z,7.70
2019-03-29T03:43:29.405Z,7.70
2019-03-29T03:45:57.824Z,7.70
2019-03-29T03:48:26.242Z,7.70
2019-03-29T03:50:54.723Z,7.60
2019-03-29T03:53:23.227Z,7.70
2019-03-29T03:55:53.176Z,7.60
2019-03-29T03:58:22.059Z,7.50
2019-03-29T04:00:55.378Z,7.50
2019-03-29T04:03:24.599Z,7.50
2019-03-29T04:05:53.869Z,7.60
2019-03-29T04:08:22.521Z,7.50
2019-03-29T04:10:50.953Z,7.50
2019-03-29T04:13:19.348Z,7.50
2019-03-29T04:15:47.960Z,7.50
2019-03-29T04:18:16.856Z,7.40
2019-03-29T04:20:45.489Z,7.30
2019-03-29T04:23:13.899Z,7.30
2019-03-29T04:25:42.318Z,7.30
2019-03-29T04:28:10.753Z,7.30
2019-03-29T04:30:39.183Z,7.40
2019-03-29T04:33:11.016Z,7.40
2019-03-29T04:35:37.774Z,7.30
2019-03-29T04:38:06.277Z,7.30
2019-03-29T04:40:34.886Z,7.30
2019-03-29T04:43:03.320Z,7.30
2019-03-29T04:45:31.776Z,7.30
2019-03-29T04:48:00.195Z,7.30
2019-03-29T04:50:28.605Z,7.10
2019-03-29T04:52:57.073Z,7.20
2019-03-29T04:55:25.532Z,7.20
2019-03-29T04:57:53.962Z,7.10
2019-03-29T05:00:22.431Z,7.10
2019-03-29T05:02:50.891Z,7.20
2019-03-29T05:05:19.315Z,7.20
2019-03-29T05:07:47.729Z,7.10
2019-03-29T05:10:21.646Z,7.00
2019-03-29T05:12:46.302Z,7.00
2019-03-29T05:15:14.784Z,7.10
2019-03-29T05:17:43.230Z,7.10
2019-03-29T05:20:11.841Z,7.00
2019-03-29T05:22:40.262Z,7.00
2019-03-29T05:25:09.013Z,7.10
2019-03-29T05:27:37.441Z,7.10
2019-03-29T05:30:07.234Z,7.10
2019-03-29T05:32:35.655Z,7.10
2019-03-29T05:35:05.515Z,7.10
2019-03-29T05:37:33.924Z,7.00
2019-03-29T05:40:02.329Z,7.00
2019-03-29T05:42:30.779Z,7.00
2019-03-29T05:44:59.189Z,7.20
2019-03-29T05:47:27.617Z,7.30
2019-03-29T05:49:56.127Z,7.20
2019-03-29T05:52:24.564Z,7.30
2019-03-29T05:54:52.995Z,7.40
2019-03-29T05:57:21.475Z,7.40
2019-03-29T05:59:49.900Z,7.70
2019-03-29T06:02:18.333Z,7.90
2019-03-29T06:04:46.751Z,8.00
2019-03-29T06:07:15.183Z,8.20
2019-03-29T06:09:43.589Z,8.50
2019-03-29T06:12:12.049Z,8.80
2019-03-29T06:14:40.454Z,9.00
2019-03-29T06:17:08.880Z,9.20
2019-03-29T06:19:37.289Z,9.40
2019-03-29T06:22:05.726Z,9.60
2019-03-29T06:24:34.132Z,9.70
2019-03-29T06:27:02.555Z,9.80
2019-03-29T06:29:30.978Z,9.90
2019-03-29T06:31:59.503Z,9.90
2019-03-29T06:34:28.034Z,9.90
2019-03-29T06:36:58.197Z,9.90
2019-03-29T06:39:27.742Z,10.00
2019-03-29T06:41:56.180Z,10.30
2019-03-29T06:44:24.615Z,10.70
2019-03-29T06:46:54.667Z,10.90
2019-03-29T06:49:23.099Z,10.90
2019-03-29T06:51:51.515Z,11.10
2019-03-29T06:54:19.938Z,11.30
2019-03-29T06:56:48.375Z,11.40
2019-03-29T06:59:16.794Z,11.50
2019-03-29T07:01:46.582Z,11.70
2019-03-29T07:04:15.195Z,11.90
2019-03-29T07:06:43.644Z,12.20
2019-03-29T07:09:12.104Z,12.40
2019-03-29T07:11:40.530Z,12.50
2019-03-29T07:14:08.962Z,12.60
2019-03-29T07:16:37.378Z,12.80
2019-03-29T07:19:05.803Z,12.90
2019-03-29T07:21:34.214Z,13.10
2019-03-29T07:24:02.661Z,13.10
2019-03-29T07:26:31.085Z,13.10
2019-03-29T07:28:59.524Z,13.10
2019-03-29T07:31:27.962Z,13.20
2019-03-29T07:33:56.389Z,13.30
2019-03-29T07:36:24.803Z,13.50
2019-03-29T07:38:53.247Z,13.70
2019-03-29T07:41:31.653Z,13.90
2019-03-29T07:43:51.825Z,14.10
2019-03-29T07:46:20.278Z,14.10
2019-03-29T07:48:48.699Z,14.10
2019-03-29T07:51:17.118Z,14.00
2019-03-29T07:53:45.540Z,14.20
2019-03-29T07:56:13.967Z,14.40
2019-03-29T07:58:42.391Z,14.20
2019-03-29T08:01:10.797Z,14.20
2019-03-29T08:03:39.222Z,14.40
2019-03-29T08:06:07.634Z,14.60
2019-03-29T08:08:36.065Z,14.70
2019-03-29T08:11:04.472Z,14.80
2019-03-29T08:13:33.004Z,14.90
2019-03-29T08:16:01.432Z,15.00
2019-03-29T08:18:29.868Z,15.10
2019-03-29T08:20:58.285Z,15.20
2019-03-29T08:23:28.777Z,15.30
2019-03-29T08:25:56.945Z,15.40
2019-03-29T08:28:25.374Z,15.40
2019-03-29T08:30:53.779Z,15.60
2019-03-29T08:33:22.210Z,15.80
2019-03-29T08:35:50.625Z,15.90
2019-03-29T08:38:19.043Z,15.80
2019-03-29T08:40:47.483Z,16.00
2019-03-29T08:43:15.984Z,16.30
2019-03-29T08:45:44.376Z,16.40
2019-03-29T08:48:12.790Z,16.40
2019-03-29T08:50:41.235Z,16.30
2019-03-29T08:53:09.639Z,16.40
2019-03-29T08:55:45.569Z,16.40
2019-03-29T08:58:08.194Z,16.50
2019-03-29T09:00:36.623Z,16.50
2019-03-29T09:03:05.094Z,16.60
2019-03-29T09:05:33.523Z,16.60
2019-03-29T09:08:02.101Z,16.70
2019-03-29T09:10:30.748Z,17.00
2019-03-29T09:12:59.180Z,17.20
2019-03-29T09:15:27.617Z,16.70
2019-03-29T09:17:59.551Z,16.70
2019-03-29T09:20:26.169Z,16.50
2019-03-29T09:22:54.584Z,16.50
2019-03-29T09:25:23.072Z,16.60
2019-03-29T09:27:51.481Z,16.50
2019-03-29T09:30:19.968Z,16.70
2019-03-29T09:32:51.266Z,16.90
2019-03-29T09:35:18.508Z,17.00
2019-03-29T09:37:47.018Z,17.40
2019-03-29T09:40:15.500Z,17.80
2019-03-29T09:42:43.900Z,17.90
2019-03-29T09:45:12.391Z,18.00
2019-03-29T09:47:41.106Z,18.20
2019-03-29T09:50:10.822Z,18.70
2019-03-29T09:52:39.334Z,19.10
2019-03-29T09:55:08.069Z,19.50
2019-03-29T09:57:37.957Z,19.90
2019-03-29T10:00:19.382Z,20.30
2019-03-29T10:02:37.672Z,20.90
2019-03-29T10:05:06.419Z,21.60
2019-03-29T10:07:34.849Z,21.90
2019-03-29T10:10:04.494Z,22.10
2019-03-29T10:12:43.176Z,22.20
2019-03-29T10:15:03.118Z,22.30
2019-03-29T10:17:31.567Z,22.30
2019-03-29T10:19:59.957Z,22.40
2019-03-29T10:22:28.376Z,22.00
2019-03-29T10:24:56.780Z,22.40
2019-03-29T10:27:25.196Z,21.90
2019-03-29T10:29:53.613Z,21.30
2019-03-29T10:32:22.035Z,21.10
2019-03-29T10:34:50.452Z,21.40
2019-03-29T10:37:18.968Z,21.80
2019-03-29T10:39:47.412Z,22.20
2019-03-29T10:42:15.852Z,22.00
2019-03-29T10:44:44.281Z,22.30
2019-03-29T10:47:12.709Z,23.10
2019-03-29T10:49:41.113Z,23.30
2019-03-29T10:52:09.547Z,23.00
2019-03-29T10:54:37.966Z,23.60
2019-03-29T10:57:06.404Z,23.50
2019-03-29T10:59:34.808Z,23.50
2019-03-29T11:02:03.226Z,24.00
2019-03-29T11:04:32.266Z,23.40
2019-03-29T11:07:00.731Z,23.50
2019-03-29T11:09:29.167Z,24.20
2019-03-29T11:11:57.570Z,24.50
2019-03-29T11:14:26.004Z,25.20
2019-03-29T11:16:54.404Z,26.20
2019-03-29T11:19:22.838Z,26.60
2019-03-29T11:21:51.224Z,26.00
2019-03-29T11:24:19.705Z,25.40
2019-03-29T11:26:48.173Z,25.30
2019-03-29T11:29:16.706Z,25.80
2019-03-29T11:31:45.184Z,26.10
2019-03-29T11:34:13.611Z,26.50
2019-03-29T11:36:42.020Z,24.90
2019-03-29T11:39:10.573Z,23.40
2019-03-29T11:41:38.976Z,23.40
2019-03-29T11:44:07.669Z,25.10
2019-03-29T11:46:36.076Z,26.30
2019-03-29T11:49:04.500Z,27.00
2019-03-29T11:51:32.916Z,26.90
2019-03-29T11:54:01.375Z,26.00
2019-03-29T11:56:30.036Z,26.50
2019-03-29T11:58:58.543Z,26.20
2019-03-29T12:01:26.957Z,25.90
2019-03-29T12:03:55.380Z,26.60
2019-03-29T12:06:23.783Z,27.00
2019-03-29T12:08:52.272Z,25.40
2019-03-29T12:11:20.683Z,23.80
2019-03-29T12:13:49.124Z,22.60
2019-03-29T12:16:17.587Z,22.50
2019-03-29T12:18:46.029Z,22.60
2019-03-29T12:21:14.448Z,24.00
2019-03-29T12:23:42.879Z,25.50
2019-03-29T12:26:11.279Z,26.20
2019-03-29T12:28:39.691Z,26.70
2019-03-29T12:31:08.264Z,26.60
2019-03-29T12:33:36.682Z,26.80
2019-03-29T12:36:05.164Z,26.40
2019-03-29T12:38:33.610Z,26.40
2019-03-29T12:41:02.016Z,25.80
2019-03-29T12:43:30.445Z,25.90
2019-03-29T12:45:58.866Z,25.90
2019-03-29T12:48:27.296Z,26.10
2019-03-29T12:50:55.790Z,25.80
2019-03-29T12:53:24.200Z,25.40
2019-03-29T12:55:52.645Z,24.20
2019-03-29T12:58:21.028Z,23.50
2019-03-29T13:00:49.478Z,23.30
2019-03-29T13:03:17.886Z,23.30
2019-03-29T13:05:46.378Z,23.60
2019-03-29T13:08:14.892Z,23.20
2019-03-29T13:10:43.337Z,22.70
2019-03-29T13:13:11.784Z,22.40
2019-03-29T13:15:40.239Z,22.30
2019-03-29T13:18:08.643Z,22.40
2019-03-29T13:20:37.054Z,22.50
2019-03-29T13:23:05.537Z,22.70
2019-03-29T13:25:33.948Z,22.80
2019-03-29T13:28:02.360Z,22.20
2019-03-29T13:30:30.781Z,22.10
2019-03-29T13:32:59.277Z,22.10
2019-03-29T13:35:27.760Z,22.10
2019-03-29T13:37:56.167Z,21.90
2019-03-29T13:40:24.648Z,21.60
2019-03-29T13:42:53.065Z,21.50
2019-03-29T13:45:21.479Z,21.80
2019-03-29T13:47:49.878Z,21.80
2019-03-29T13:50:18.292Z,21.50
2019-03-29T13:52:46.715Z,21.70
2019-03-29T13:55:15.120Z,21.70
2019-03-29T13:57:43.547Z,22.00
2019-03-29T14:00:12.480Z,22.30
2019-03-29T14:02:40.920Z,21.70
2019-03-29T14:05:09.665Z,21.10
2019-03-29T14:07:38.097Z,21.10
2019-03-29T14:10:10.116Z,21.10
2019-03-29T14:12:39.476Z,20.70
2019-03-29T14:15:09.828Z,20.40
2019-03-29T14:17:38.261Z,20.30
2019-03-29T14:20:07.016Z,20.70
2019-03-29T14:22:35.442Z,20.90
2019-03-29T14:25:05.012Z,20.80
2019-03-29T14:27:33.435Z,20.80
2019-03-29T14:30:04.633Z,20.80
2019-03-29T14:32:32.035Z,21.00
2019-03-29T14:35:00.446Z,21.50
2019-03-29T14:37:28.868Z,21.20
2019-03-29T14:39:57.272Z,20.80
2019-03-29T14:42:25.695Z,20.90
2019-03-29T14:44:54.112Z,21.00
2019-03-29T14:47:22.542Z,20.90
2019-03-29T14:49:50.947Z,21.10
2019-03-29T14:52:19.376Z,21.10
2019-03-29T14:54:47.809Z,21.00
2019-03-29T14:57:16.219Z,21.10
2019-03-29T14:59:44.635Z,21.80
2019-03-29T15:02:13.048Z,22.10
2019-03-29T15:04:41.466Z,22.20
2019-03-29T15:07:11.468Z,22.00
2019-03-29T15:09:40.152Z,22.20
2019-03-29T15:12:08.574Z,21.90
2019-03-29T15:14:36.980Z,21.90
2019-03-29T15:17:05.399Z,22.00
2019-03-29T15:19:33.796Z,21.70
2019-03-29T15:22:02.286Z,21.60
2019-03-29T15:24:30.691Z,21.70
2019-03-29T15:26:59.110Z,21.30
2019-03-29T15:29:27.512Z,20.70
2019-03-29T15:31:55.935Z,20.10
2019-03-29T15:34:24.345Z,19.90
2019-03-29T15:36:52.763Z,19.70
2019-03-29T15:39:40.510Z,19.60
2019-03-29T15:42:08.939Z,19.40
2019-03-29T15:44:37.361Z,19.30
2019-03-29T15:47:05.763Z,19.10
2019-03-29T15:49:34.201Z,18.80
2019-03-29T15:52:02.628Z,18.80
2019-03-29T15:54:31.052Z,18.80
2019-03-29T15:56:59.473Z,19.00
2019-03-29T15:59:27.880Z,19.10
2019-03-29T16:01:59.027Z,18.80
2019-03-29T16:04:27.546Z,18.70
2019-03-29T16:06:56.022Z,18.70
2019-03-29T16:09:24.677Z,18.70
2019-03-29T16:11:53.074Z,18.70
2019-03-29T16:14:21.490Z,18.70
2019-03-29T16:16:49.896Z,18.70
2019-03-29T16:19:18.326Z,18.60
2019-03-29T16:21:46.741Z,18.50
2019-03-29T16:24:15.183Z,18.40
2019-03-29T16:26:43.595Z,18.50
2019-03-29T16:29:12.030Z,18.40
2019-03-29T16:31:40.432Z,18.20
2019-03-29T16:34:08.900Z,18.20
2019-03-29T16:36:37.311Z,18.10
2019-03-29T16:39:07.670Z,17.80
2019-03-29T16:41:36.919Z,17.70
2019-03-29T16:44:05.692Z,17.90
2019-03-29T16:46:34.104Z,18.00
2019-03-29T16:49:02.513Z,18.10
2019-03-29T16:51:30.945Z,17.90
2019-03-29T16:53:59.356Z,17.70
2019-03-29T16:56:27.936Z,17.70
2019-03-29T16:58:56.402Z,17.60
2019-03-29T17:01:24.893Z,17.70
2019-03-29T17:03:53.625Z,17.80
2019-03-29T17:06:22.029Z,17.70
2019-03-29T17:08:50.466Z,17.70
2019-03-29T17:11:18.865Z,17.60
2019-03-29T17:13:47.288Z,17.50
2019-03-29T17:16:29.398Z,17.60
2019-03-29T17:18:45.852Z,17.50
2019-03-29T17:21:14.255Z,17.50
2019-03-29T17:23:43.539Z,17.50
2019-03-29T17:26:11.940Z,17.60
2019-03-29T17:28:40.359Z,17.60
2019-03-29T17:31:10.432Z,17.60
2019-03-29T17:33:38.844Z,17.60
2019-03-29T17:36:07.261Z,17.50
2019-03-29T17:38:35.683Z,17.30
2019-03-29T17:41:04.099Z,17.20
2019-03-29T17:43:32.530Z,17.20
2019-03-29T17:46:15.093Z,17.20
2019-03-29T17:48:31.074Z,17.20
2019-03-29T17:50:59.480Z,17.20
2019-03-29T17:53:27.985Z,17.00
2019-03-29T17:55:56.400Z,17.00
2019-03-29T17:58:24.823Z,17.00
2019-03-29T18:00:53.315Z,17.00
2019-03-29T18:03:21.713Z,16.80
2019-03-29T18:05:50.136Z,16.80
2019-03-29T18:08:18.548Z,16.80
2019-03-29T18:10:46.973Z,16.80
2019-03-29T18:13:15.382Z,16.80
2019-03-29T18:15:43.804Z,16.80
2019-03-29T18:18:13.246Z,16.90
2019-03-29T18:20:42.054Z,16.80
2019-03-29T18:23:10.502Z,16.80
2019-03-29T18:25:38.941Z,16.80
2019-03-29T18:28:07.336Z,16.70
2019-03-29T18:30:38.090Z,16.60
2019-03-29T18:33:07.197Z,16.50
2019-03-29T18:35:37.282Z,16.40
2019-03-29T18:38:05.777Z,16.10
2019-03-29T18:40:34.372Z,16.00
2019-03-29T18:43:02.862Z,16.10
2019-03-29T18:45:31.348Z,16.10
2019-03-29T18:48:02.837Z,16.00
2019-03-29T18:50:31.243Z,15.70
2019-03-29T18:52:59.652Z,15.60
2019-03-29T18:55:28.193Z,15.50
2019-03-29T18:57:56.618Z,15.50
2019-03-29T19:00:32.571Z,15.40
2019-03-29T19:03:01.613Z,15.40
2019-03-29T19:05:30.372Z,15.40
2019-03-29T19:07:58.854Z,15.40
2019-03-29T19:10:27.280Z,15.30
2019-03-29T19:12:55.696Z,15.30
2019-03-29T19:15:24.530Z,15.20
2019-03-29T19:17:52.975Z,15.20
2019-03-29T19:20:27.682Z,15.20
2019-03-29T19:22:51.540Z,15.20
2019-03-29T19:25:19.959Z,14.90
2019-03-29T19:27:48.376Z,14.70
2019-03-29T19:30:17.288Z,14.60
2019-03-29T19:32:45.759Z,14.70
2019-03-29T19:35:14.176Z,14.70
2019-03-29T19:37:42.608Z,14.80
2019-03-29T19:40:11.142Z,14.80
2019-03-29T19:42:39.544Z,14.50
2019-03-29T19:45:09.907Z,14.20
2019-03-29T19:47:38.322Z,14.00
2019-03-29T19:50:07.379Z,14.00
2019-03-29T19:52:35.868Z,13.90
2019-03-29T19:55:05.119Z,13.90
2019-03-29T19:57:33.552Z,13.90
2019-03-29T20:00:02.001Z,13.70
2019-03-29T20:02:30.459Z,13.50
2019-03-29T20:04:58.876Z,13.40
2019-03-29T20:07:27.300Z,13.30
2019-03-29T20:09:55.724Z,13.50
2019-03-29T20:12:25.291Z,13.60
2019-03-29T20:14:53.814Z,13.70
2019-03-29T20:17:27.755Z,13.60
2019-03-29T20:19:52.369Z,13.50
2019-03-29T20:22:20.786Z,13.40
2019-03-29T20:24:49.228Z,13.30
2019-03-29T20:27:17.660Z,13.20
2019-03-29T20:29:46.112Z,13.20
2019-03-29T20:32:14.547Z,13.00
2019-03-29T20:34:42.965Z,12.90
2019-03-29T20:37:11.414Z,12.70
2019-03-29T20:39:39.910Z,12.60
2019-03-29T20:42:08.349Z,12.60
2019-03-29T20:44:36.956Z,12.80
2019-03-29T20:47:05.940Z,12.80
2019-03-29T20:49:34.720Z,12.70
2019-03-29T20:52:03.167Z,12.60
2019-03-29T20:54:31.585Z,12.60
2019-03-29T20:57:00.005Z,12.60
2019-03-29T20:59:28.439Z,12.60
2019-03-29T21:01:56.836Z,12.60
2019-03-29T21:04:25.418Z,12.70
2019-03-29T21:06:53.876Z,12.50
2019-03-29T21:09:22.326Z,12.40
2019-03-29T21:11:50.808Z,12.30
2019-03-29T21:14:19.237Z,12.10
2019-03-29T21:16:47.674Z,12.00
2019-03-29T21:19:16.094Z,11.90
2019-03-29T21:21:44.504Z,11.90
2019-03-29T21:24:12.915Z,12.10
2019-03-29T21:26:41.333Z,12.10
2019-03-29T21:29:09.736Z,12.10
2019-03-29T21:31:38.181Z,12.10
2019-03-29T21:34:06.577Z,12.00
2019-03-29T21:36:35.079Z,11.90
2019-03-29T21:39:07.004Z,11.90
2019-03-29T21:41:35.487Z,11.80
2019-03-29T21:44:03.896Z,11.70
2019-03-29T21:46:32.320Z,11.60
2019-03-29T21:49:00.719Z,11.50
2019-03-29T21:51:29.163Z,11.50
2019-03-29T21:53:57.559Z,11.30
2019-03-29T21:56:25.964Z,11.20
2019-03-29T21:58:54.382Z,11.20
2019-03-29T22:01:22.861Z,11.10
2019-03-29T22:03:51.281Z,11.20
2019-03-29T22:06:19.786Z,11.20
2019-03-29T22:08:48.396Z,11.30
2019-03-29T22:11:16.871Z,11.30
2019-03-29T22:13:45.287Z,11.20
2019-03-29T22:16:27.553Z,11.10
2019-03-29T22:18:55.962Z,11.20
2019-03-29T22:21:24.376Z,11.10
2019-03-29T22:23:52.808Z,11.10
2019-03-29T22:26:21.213Z,10.90
2019-03-29T22:28:49.639Z,11.00
2019-03-29T22:31:18.058Z,11.20
2019-03-29T22:33:46.487Z,11.10
2019-03-29T22:36:14.905Z,11.10
2019-03-29T22:38:43.333Z,11.30
2019-03-29T22:41:11.739Z,11.20
2019-03-29T22:43:40.155Z,11.10
2019-03-29T22:46:08.574Z,11.00
2019-03-29T22:48:51.101Z,10.90
2019-03-29T22:51:07.119Z,10.80
2019-03-29T22:53:35.532Z,10.90
2019-03-29T22:56:04.008Z,10.80
2019-03-29T22:58:32.429Z,10.80
2019-03-29T23:01:01.982Z,10.80
2019-03-29T23:03:30.396Z,10.60
2019-03-29T23:05:58.884Z,10.30
2019-03-29T23:08:27.304Z,10.10
2019-03-29T23:10:55.781Z,10.10
2019-03-29T23:13:24.480Z,10.10
2019-03-29T23:15:53.258Z,10.00
2019-03-29T23:18:21.905Z,9.90
2019-03-29T23:20:50.339Z,10.20
2019-03-29T23:23:18.821Z,10.20
2019-03-29T23:25:47.221Z,10.10
2019-03-29T23:28:15.632Z,9.80
2019-03-29T23:30:44.033Z,9.80
2019-03-29T23:33:12.522Z,9.80
2019-03-29T23:35:41.414Z,9.80
2019-03-29T23:38:10.032Z,9.80
2019-03-29T23:40:38.515Z,9.80
2019-03-29T23:43:06.959Z,9.80
2019-03-29T23:45:35.504Z,9.70
2019-03-29T23:48:04.107Z,9.70
2019-03-29T23:50:32.650Z,9.70
2019-03-29T23:53:01.071Z,9.60
2019-03-29T23:55:29.563Z,9.60
2019-03-29T23:57:58.047Z,9.50
